Dobbs Ferry, New York
Current Conditions -  °F | °C
As of 1:56 PM on Thursday 27 Nov 2014 (Local Time) from KHPN Reporting Station
Light Snow Light Snow  
Wind Chill: 26°   Ceiling: 3200
Heat Index: 34°   Visibility: 6mi
Dew Point: 29°   Wind: 10mph
Humidity: 82%   Direction: 330°NNW
Pressure: 29.95"   Gusts: NA
Location:  41.02°N, 73.87°W
Report Text: KHPN 271856Z 33009KT 6SM -SN SCT017 BKN032 01/M02 A2995 RMK AO2 SLP149 P0000 T00111017
Loading
Personal Weather Stations






























Interactive Weather Map New forecast layout! Learn more

10-Day Weather Forecast

Advertisements
Track Severe Weather on mobile